Time;durP1;ratioP1;P1;durP2;ratioP2;P2;SDS_P1;SDS_P2;PMS_P1;PMS_P2;Temp;Humidity;BMP_temperature;BMP_pressure;BME280_temperature;BME280_humidity;BME280_pressure;Samples;Min_cycle;Max_cycle;Signal;HPM_P1;HPM_P2
2024/03/17 00:28:14;;;;;;;7.10;3.93;;;7.10;99.30;;;;;;5683942;24;20676;-86
2024/03/17 00:53:34;;;;;;;6.60;3.33;;;7.10;94.70;;;;;;5788192;23;20213;-85
2024/03/17 01:13:42;;;;;;;4.93;3.47;;;6.90;89.40;;;;;;5630464;24;20685;-85
2024/03/17 01:39:11;;;;;;;7.03;3.23;;;6.50;89.70;;;;;;5599337;24;20256;-84
2024/03/17 02:09:57;;;;;;;5.67;3.90;;;6.00;92.50;;;;;;5722852;24;20298;-84
2024/03/17 02:30:15;;;;;;;8.47;3.57;;;5.80;92.90;;;;;;5748883;24;20186;-85
2024/03/17 02:55:38;;;;;;;15.93;4.40;;;5.80;93.10;;;;;;5689183;24;20197;-82
2024/03/17 03:25:46;;;;;;;8.03;3.77;;;5.30;95.70;;;;;;5776728;23;20531;-84
2024/03/17 03:51:11;;;;;;;9.93;4.57;;;5.30;99.70;;;;;;5835140;23;20240;-85
2024/03/17 04:11:01;;;;;;;11.87;4.60;;;4.80;99.90;;;;;;5733786;24;20637;-85
2024/03/17 05:02:02;;;;;;;13.20;5.30;;;5.10;93.20;;;;;;5896582;23;20385;-85
2024/03/17 05:32:09;;;;;;;13.13;4.70;;;4.50;99.90;;;;;;5596153;24;20440;-85
2024/03/17 05:52:43;;;;;;;7.43;5.13;;;4.80;99.90;;;;;;5895467;23;20567;-86
2024/03/17 06:12:58;;;;;;;8.40;4.93;;;5.50;99.90;;;;;;5867931;23;20539;-85
2024/03/17 06:33:37;;;;;;;9.13;4.93;;;5.70;95.10;;;;;;5985544;23;20206;-82
2024/03/17 07:49:21;;;;;;;9.47;4.30;;;7.00;89.00;;;;;;5743292;24;20346;-86
2024/03/17 08:09:48;;;;;;;6.60;3.50;;;7.00;87.30;;;;;;5738384;24;20229;-83
2024/03/17 08:30:14;;;;;;;7.70;4.20;;;7.40;88.50;;;;;;5791717;23;20415;-83
2024/03/17 09:00:04;;;;;;;7.47;4.53;;;7.70;87.70;;;;;;5786317;23;20574;-82
2024/03/17 10:11:36;;;;;;;7.80;4.50;;;7.70;91.60;;;;;;5642570;24;20205;-85
2024/03/17 10:36:37;;;;;;;6.10;3.60;;;7.00;90.80;;;;;;5791770;23;20687;-85
2024/03/17 11:27:40;;;;;;;4.13;3.50;;;7.30;90.70;;;;;;5614766;24;20591;-84
2024/03/17 11:58:03;;;;;;;3.77;3.40;;;6.60;86.10;;;;;;5808016;23;20183;-86
2024/03/17 12:28:37;;;;;;;3.30;2.80;;;6.30;87.40;;;;;;5871841;23;20324;-84
2024/03/17 13:24:19;;;;;;;2.50;2.30;;;7.60;84.70;;;;;;5816098;23;20194;-84
2024/03/17 13:44:45;;;;;;;3.50;3.20;;;6.80;86.20;;;;;;5689287;24;20165;-86
2024/03/17 14:09:43;;;;;;;3.60;3.30;;;5.80;96.70;;;;;;5580382;24;20714;-85
2024/03/17 15:00:46;;;;;;;3.60;3.30;;;4.10;99.90;;;;;;5743208;23;20459;-84
2024/03/17 15:26:13;;;;;;;3.67;3.37;;;3.80;99.90;;;;;;5772148;24;20255;-85
2024/03/17 17:42:55;;;;;;;5.63;3.97;;;2.50;99.90;;;;;;5659735;24;20196;-85
2024/03/17 18:03:21;;;;;;;4.07;3.77;;;2.50;99.90;;;;;;5614430;24;20325;-86
2024/03/17 18:33:43;;;;;;;4.20;3.83;;;2.40;99.90;;;;;;5608934;24;20277;-85
2024/03/17 19:04:14;;;;;;;3.80;3.50;;;2.40;99.90;;;;;;5805907;23;20568;-85
2024/03/17 19:39:47;;;;;;;4.30;4.00;;;2.40;99.90;;;;;;5734663;24;20179;-86
2024/03/17 20:14:47;;;;;;;5.43;4.23;;;2.20;99.90;;;;;;5812778;23;20702;-84
2024/03/17 20:35:31;;;;;;;4.50;4.10;;;2.10;99.90;;;;;;5632007;24;20197;-83
2024/03/17 20:55:38;;;;;;;3.10;2.90;;;2.10;96.50;;;;;;5622891;24;20255;-83
2024/03/17 21:30:39;;;;;;;4.23;3.93;;;1.90;99.90;;;;;;5876981;23;20209;-85
2024/03/17 21:36:15;;;;;;;4.77;4.27;;;1.80;99.90;;;;;;6108795;23;20268;-86
2024/03/17 22:06:44;;;;;;;4.07;3.70;;;1.80;99.90;;;;;;5707255;24;20221;-86
2024/03/17 22:41:30;;;;;;;4.47;4.10;;;1.70;99.90;;;;;;5643121;24;20591;-84
2024/03/17 22:57:17;;;;;;;4.03;3.73;;;1.70;99.90;;;;;;5707706;24;20231;-83
2024/03/17 23:22:48;;;;;;;4.67;3.93;;;1.50;99.90;;;;;;5711060;24;20285;-85
2024/03/17 23:47:58;;;;;;;4.23;3.93;;;1.40;99.90;;;;;;5768501;23;21215;-85
